sensor_id;sensor_type;location;lat;lon;timestamp;P1;durP1;ratioP1;P2;durP2;ratioP2
60935;SDS011;46804;51.786;19.520;2023-12-20T00:03:46;29.65;;;15.95;;
60935;SDS011;46804;51.786;19.520;2023-12-20T00:07:47;30.98;;;16.10;;
60935;SDS011;46804;51.786;19.520;2023-12-20T00:11:47;29.33;;;17.70;;
60935;SDS011;46804;51.786;19.520;2023-12-20T00:15:48;29.38;;;16.42;;
60935;SDS011;46804;51.786;19.520;2023-12-20T00:19:49;27.10;;;15.20;;
60935;SDS011;46804;51.786;19.520;2023-12-20T00:23:50;25.35;;;13.77;;
60935;SDS011;46804;51.786;19.520;2023-12-20T00:27:51;32.83;;;18.83;;
60935;SDS011;46804;51.786;19.520;2023-12-20T00:31:52;30.85;;;16.80;;
60935;SDS011;46804;51.786;19.520;2023-12-20T00:35:52;28.08;;;16.40;;
60935;SDS011;46804;51.786;19.520;2023-12-20T00:39:54;30.92;;;16.08;;
60935;SDS011;46804;51.786;19.520;2023-12-20T00:43:54;26.98;;;14.05;;
60935;SDS011;46804;51.786;19.520;2023-12-20T01:08:05;27.85;;;16.98;;
60935;SDS011;46804;51.786;19.520;2023-12-20T01:12:07;30.58;;;17.00;;
60935;SDS011;46804;51.786;19.520;2023-12-20T01:16:09;27.38;;;14.30;;
60935;SDS011;46804;51.786;19.520;2023-12-20T01:20:11;28.90;;;16.90;;
60935;SDS011;46804;51.786;19.520;2023-12-20T01:24:12;27.63;;;13.32;;
60935;SDS011;46804;51.786;19.520;2023-12-20T01:28:12;19.48;;;12.10;;
60935;SDS011;46804;51.786;19.520;2023-12-20T01:32:13;23.35;;;12.57;;
60935;SDS011;46804;51.786;19.520;2023-12-20T01:36:14;26.42;;;13.65;;
60935;SDS011;46804;51.786;19.520;2023-12-20T01:40:15;24.08;;;13.45;;
60935;SDS011;46804;51.786;19.520;2023-12-20T01:44:15;22.92;;;13.50;;
60935;SDS011;46804;51.786;19.520;2023-12-20T01:48:16;24.98;;;13.63;;
60935;SDS011;46804;51.786;19.520;2023-12-20T01:52:18;20.77;;;13.13;;
60935;SDS011;46804;51.786;19.520;2023-12-20T01:56:20;23.30;;;13.20;;
60935;SDS011;46804;51.786;19.520;2023-12-20T02:00:21;23.33;;;13.82;;
60935;SDS011;46804;51.786;19.520;2023-12-20T02:04:27;20.50;;;12.73;;
60935;SDS011;46804;51.786;19.520;2023-12-20T02:08:27;19.45;;;10.60;;
60935;SDS011;46804;51.786;19.520;2023-12-20T02:12:28;17.60;;;10.63;;
60935;SDS011;46804;51.786;19.520;2023-12-20T02:16:29;17.70;;;11.02;;
60935;SDS011;46804;51.786;19.520;2023-12-20T02:20:30;17.80;;;10.73;;
60935;SDS011;46804;51.786;19.520;2023-12-20T02:24:30;16.23;;;10.75;;
60935;SDS011;46804;51.786;19.520;2023-12-20T02:28:31;16.08;;;9.27;;
60935;SDS011;46804;51.786;19.520;2023-12-20T02:32:32;13.38;;;8.65;;
60935;SDS011;46804;51.786;19.520;2023-12-20T02:36:33;14.55;;;9.88;;
60935;SDS011;46804;51.786;19.520;2023-12-20T02:40:34;13.52;;;8.60;;
60935;SDS011;46804;51.786;19.520;2023-12-20T02:44:34;15.55;;;8.32;;
60935;SDS011;46804;51.786;19.520;2023-12-20T02:48:35;12.05;;;8.13;;
60935;SDS011;46804;51.786;19.520;2023-12-20T02:52:36;11.85;;;8.20;;
60935;SDS011;46804;51.786;19.520;2023-12-20T02:56:37;11.50;;;8.00;;
60935;SDS011;46804;51.786;19.520;2023-12-20T03:00:37;13.55;;;8.57;;
60935;SDS011;46804;51.786;19.520;2023-12-20T03:04:38;11.70;;;7.72;;
60935;SDS011;46804;51.786;19.520;2023-12-20T03:08:39;13.73;;;8.18;;
60935;SDS011;46804;51.786;19.520;2023-12-20T03:12:41;14.77;;;8.73;;
60935;SDS011;46804;51.786;19.520;2023-12-20T03:16:46;15.80;;;9.48;;
60935;SDS011;46804;51.786;19.520;2023-12-20T03:20:47;12.63;;;7.43;;
60935;SDS011;46804;51.786;19.520;2023-12-20T03:24:50;14.23;;;8.57;;
60935;SDS011;46804;51.786;19.520;2023-12-20T03:28:51;13.52;;;7.95;;
60935;SDS011;46804;51.786;19.520;2023-12-20T03:32:52;11.85;;;7.68;;
60935;SDS011;46804;51.786;19.520;2023-12-20T03:36:53;13.43;;;7.60;;
60935;SDS011;46804;51.786;19.520;2023-12-20T03:40:53;10.97;;;7.27;;
60935;SDS011;46804;51.786;19.520;2023-12-20T03:44:54;11.32;;;7.65;;
60935;SDS011;46804;51.786;19.520;2023-12-20T03:48:55;11.05;;;7.00;;
60935;SDS011;46804;51.786;19.520;2023-12-20T03:52:56;11.80;;;7.05;;
60935;SDS011;46804;51.786;19.520;2023-12-20T03:56:57;13.85;;;8.30;;
60935;SDS011;46804;51.786;19.520;2023-12-20T04:00:57;11.15;;;7.80;;
60935;SDS011;46804;51.786;19.520;2023-12-20T04:04:58;11.65;;;8.02;;
60935;SDS011;46804;51.786;19.520;2023-12-20T04:08:59;10.13;;;6.28;;
60935;SDS011;46804;51.786;19.520;2023-12-20T04:12:59;9.00;;;5.88;;
60935;SDS011;46804;51.786;19.520;2023-12-20T04:17:00;9.60;;;5.80;;
60935;SDS011;46804;51.786;19.520;2023-12-20T04:21:01;9.68;;;5.22;;
60935;SDS011;46804;51.786;19.520;2023-12-20T04:25:02;8.45;;;5.75;;
60935;SDS011;46804;51.786;19.520;2023-12-20T04:29:02;9.45;;;5.97;;
60935;SDS011;46804;51.786;19.520;2023-12-20T04:33:03;9.02;;;5.78;;
60935;SDS011;46804;51.786;19.520;2023-12-20T04:37:04;9.25;;;5.68;;
60935;SDS011;46804;51.786;19.520;2023-12-20T04:41:05;10.98;;;6.30;;
60935;SDS011;46804;51.786;19.520;2023-12-20T04:45:06;12.02;;;5.95;;
60935;SDS011;46804;51.786;19.520;2023-12-20T04:49:07;7.30;;;4.78;;
60935;SDS011;46804;51.786;19.520;2023-12-20T04:53:07;7.65;;;4.70;;
60935;SDS011;46804;51.786;19.520;2023-12-20T04:57:08;6.80;;;4.70;;
60935;SDS011;46804;51.786;19.520;2023-12-20T05:01:09;7.70;;;4.88;;
60935;SDS011;46804;51.786;19.520;2023-12-20T05:05:10;9.75;;;6.05;;
60935;SDS011;46804;51.786;19.520;2023-12-20T05:09:11;7.90;;;4.97;;
60935;SDS011;46804;51.786;19.520;2023-12-20T05:13:12;8.85;;;6.07;;
60935;SDS011;46804;51.786;19.520;2023-12-20T05:17:13;9.68;;;5.57;;
60935;SDS011;46804;51.786;19.520;2023-12-20T05:21:17;10.30;;;6.18;;
60935;SDS011;46804;51.786;19.520;2023-12-20T05:25:18;10.30;;;7.20;;
60935;SDS011;46804;51.786;19.520;2023-12-20T05:29:19;12.50;;;6.50;;
60935;SDS011;46804;51.786;19.520;2023-12-20T05:33:20;12.77;;;6.88;;
60935;SDS011;46804;51.786;19.520;2023-12-20T05:37:21;10.57;;;7.25;;
60935;SDS011;46804;51.786;19.520;2023-12-20T05:41:21;10.63;;;6.28;;
60935;SDS011;46804;51.786;19.520;2023-12-20T05:45:22;12.50;;;7.65;;
60935;SDS011;46804;51.786;19.520;2023-12-20T05:49:23;12.17;;;7.00;;
60935;SDS011;46804;51.786;19.520;2023-12-20T05:53:24;10.90;;;7.22;;
60935;SDS011;46804;51.786;19.520;2023-12-20T05:57:25;12.18;;;6.63;;
60935;SDS011;46804;51.786;19.520;2023-12-20T06:01:25;12.43;;;7.65;;
60935;SDS011;46804;51.786;19.520;2023-12-20T06:05:26;14.90;;;7.35;;
60935;SDS011;46804;51.786;19.520;2023-12-20T06:09:27;11.05;;;6.15;;
60935;SDS011;46804;51.786;19.520;2023-12-20T06:13:28;11.23;;;7.00;;
60935;SDS011;46804;51.786;19.520;2023-12-20T06:17:29;11.27;;;7.13;;
60935;SDS011;46804;51.786;19.520;2023-12-20T06:21:31;10.10;;;6.18;;
60935;SDS011;46804;51.786;19.520;2023-12-20T06:25:32;11.43;;;6.75;;
60935;SDS011;46804;51.786;19.520;2023-12-20T06:29:33;10.00;;;6.43;;
60935;SDS011;46804;51.786;19.520;2023-12-20T06:33:35;11.00;;;6.13;;
60935;SDS011;46804;51.786;19.520;2023-12-20T06:37:36;9.32;;;5.95;;
60935;SDS011;46804;51.786;19.520;2023-12-20T06:41:38;10.75;;;6.57;;
60935;SDS011;46804;51.786;19.520;2023-12-20T06:45:39;12.90;;;6.75;;
60935;SDS011;46804;51.786;19.520;2023-12-20T06:49:40;10.00;;;6.28;;
60935;SDS011;46804;51.786;19.520;2023-12-20T06:53:41;9.68;;;5.78;;
60935;SDS011;46804;51.786;19.520;2023-12-20T06:57:41;11.55;;;6.93;;
60935;SDS011;46804;51.786;19.520;2023-12-20T07:01:42;11.35;;;6.70;;
60935;SDS011;46804;51.786;19.520;2023-12-20T07:05:43;11.82;;;7.22;;
60935;SDS011;46804;51.786;19.520;2023-12-20T07:09:44;13.32;;;7.10;;
60935;SDS011;46804;51.786;19.520;2023-12-20T07:13:45;12.45;;;7.63;;
60935;SDS011;46804;51.786;19.520;2023-12-20T07:17:45;12.35;;;7.20;;
60935;SDS011;46804;51.786;19.520;2023-12-20T07:21:46;12.02;;;7.22;;
60935;SDS011;46804;51.786;19.520;2023-12-20T07:25:47;12.02;;;7.22;;
60935;SDS011;46804;51.786;19.520;2023-12-20T07:29:48;12.10;;;7.15;;
60935;SDS011;46804;51.786;19.520;2023-12-20T07:33:48;12.15;;;7.05;;
60935;SDS011;46804;51.786;19.520;2023-12-20T07:37:49;13.10;;;7.45;;
60935;SDS011;46804;51.786;19.520;2023-12-20T07:41:50;11.27;;;7.50;;
60935;SDS011;46804;51.786;19.520;2023-12-20T07:45:51;13.77;;;8.30;;
60935;SDS011;46804;51.786;19.520;2023-12-20T07:49:51;10.38;;;7.05;;
60935;SDS011;46804;51.786;19.520;2023-12-20T07:53:52;13.80;;;7.55;;
60935;SDS011;46804;51.786;19.520;2023-12-20T07:57:53;11.07;;;6.97;;
60935;SDS011;46804;51.786;19.520;2023-12-20T08:01:54;11.65;;;7.18;;
60935;SDS011;46804;51.786;19.520;2023-12-20T08:05:55;12.70;;;7.68;;
60935;SDS011;46804;51.786;19.520;2023-12-20T08:09:57;13.95;;;6.68;;
60935;SDS011;46804;51.786;19.520;2023-12-20T08:13:58;10.43;;;6.75;;
60935;SDS011;46804;51.786;19.520;2023-12-20T08:17:58;10.02;;;6.50;;
60935;SDS011;46804;51.786;19.520;2023-12-20T08:21:59;10.18;;;6.15;;
60935;SDS011;46804;51.786;19.520;2023-12-20T08:26:07;14.30;;;8.00;;
60935;SDS011;46804;51.786;19.520;2023-12-20T08:30:08;12.15;;;7.15;;
60935;SDS011;46804;51.786;19.520;2023-12-20T08:34:10;12.30;;;6.38;;
60935;SDS011;46804;51.786;19.520;2023-12-20T08:38:13;11.95;;;7.22;;
60935;SDS011;46804;51.786;19.520;2023-12-20T08:42:13;13.77;;;9.10;;
60935;SDS011;46804;51.786;19.520;2023-12-20T08:46:14;14.85;;;8.98;;
60935;SDS011;46804;51.786;19.520;2023-12-20T08:50:15;11.55;;;7.15;;
60935;SDS011;46804;51.786;19.520;2023-12-20T08:54:16;12.68;;;7.18;;
60935;SDS011;46804;51.786;19.520;2023-12-20T08:58:18;13.05;;;7.82;;
60935;SDS011;46804;51.786;19.520;2023-12-20T09:02:18;11.30;;;6.78;;
60935;SDS011;46804;51.786;19.520;2023-12-20T09:06:19;12.18;;;6.43;;
60935;SDS011;46804;51.786;19.520;2023-12-20T09:10:20;11.73;;;7.18;;
60935;SDS011;46804;51.786;19.520;2023-12-20T09:14:22;11.70;;;6.20;;
60935;SDS011;46804;51.786;19.520;2023-12-20T09:18:23;10.93;;;6.38;;
60935;SDS011;46804;51.786;19.520;2023-12-20T09:22:25;11.82;;;6.57;;
60935;SDS011;46804;51.786;19.520;2023-12-20T09:26:25;9.70;;;6.82;;
60935;SDS011;46804;51.786;19.520;2023-12-20T09:30:26;9.90;;;6.30;;
60935;SDS011;46804;51.786;19.520;2023-12-20T09:34:27;10.05;;;5.88;;
60935;SDS011;46804;51.786;19.520;2023-12-20T09:38:28;10.85;;;6.10;;
60935;SDS011;46804;51.786;19.520;2023-12-20T09:42:36;12.25;;;6.05;;
60935;SDS011;46804;51.786;19.520;2023-12-20T09:46:45;9.93;;;5.72;;
60935;SDS011;46804;51.786;19.520;2023-12-20T09:50:50;10.45;;;5.72;;
60935;SDS011;46804;51.786;19.520;2023-12-20T09:54:52;9.65;;;6.32;;
60935;SDS011;46804;51.786;19.520;2023-12-20T09:58:53;9.38;;;6.05;;
60935;SDS011;46804;51.786;19.520;2023-12-20T10:02:58;10.32;;;5.68;;
60935;SDS011;46804;51.786;19.520;2023-12-20T10:07:04;8.90;;;4.95;;
60935;SDS011;46804;51.786;19.520;2023-12-20T10:11:05;9.20;;;5.22;;
60935;SDS011;46804;51.786;19.520;2023-12-20T10:15:06;7.97;;;5.00;;
60935;SDS011;46804;51.786;19.520;2023-12-20T10:19:06;6.97;;;4.30;;
60935;SDS011;46804;51.786;19.520;2023-12-20T10:23:07;8.18;;;5.32;;
60935;SDS011;46804;51.786;19.520;2023-12-20T10:27:09;6.88;;;5.13;;
60935;SDS011;46804;51.786;19.520;2023-12-20T10:31:10;8.18;;;5.18;;
60935;SDS011;46804;51.786;19.520;2023-12-20T10:35:10;7.93;;;5.13;;
60935;SDS011;46804;51.786;19.520;2023-12-20T10:39:11;7.95;;;4.50;;
60935;SDS011;46804;51.786;19.520;2023-12-20T10:43:15;9.00;;;5.68;;
60935;SDS011;46804;51.786;19.520;2023-12-20T10:47:16;10.68;;;6.53;;
60935;SDS011;46804;51.786;19.520;2023-12-20T10:51:17;10.82;;;6.13;;
60935;SDS011;46804;51.786;19.520;2023-12-20T10:55:19;10.15;;;6.30;;
60935;SDS011;46804;51.786;19.520;2023-12-20T10:59:20;11.65;;;5.10;;
60935;SDS011;46804;51.786;19.520;2023-12-20T11:03:20;7.93;;;4.72;;
60935;SDS011;46804;51.786;19.520;2023-12-20T11:07:29;9.27;;;4.82;;
60935;SDS011;46804;51.786;19.520;2023-12-20T11:11:39;8.88;;;5.88;;
60935;SDS011;46804;51.786;19.520;2023-12-20T11:15:46;11.25;;;5.93;;
60935;SDS011;46804;51.786;19.520;2023-12-20T11:23:57;9.65;;;5.68;;
60935;SDS011;46804;51.786;19.520;2023-12-20T11:28:12;10.60;;;6.13;;
60935;SDS011;46804;51.786;19.520;2023-12-20T11:36:26;11.33;;;6.73;;
60935;SDS011;46804;51.786;19.520;2023-12-20T11:40:26;10.20;;;6.13;;
60935;SDS011;46804;51.786;19.520;2023-12-20T11:44:27;14.70;;;8.70;;
60935;SDS011;46804;51.786;19.520;2023-12-20T11:48:31;11.05;;;7.22;;
60935;SDS011;46804;51.786;19.520;2023-12-20T11:52:32;12.80;;;7.60;;
60935;SDS011;46804;51.786;19.520;2023-12-20T11:56:33;14.98;;;8.02;;
60935;SDS011;46804;51.786;19.520;2023-12-20T12:00:34;13.43;;;7.95;;
60935;SDS011;46804;51.786;19.520;2023-12-20T12:04:34;12.52;;;7.40;;
60935;SDS011;46804;51.786;19.520;2023-12-20T12:08:35;12.40;;;7.88;;
60935;SDS011;46804;51.786;19.520;2023-12-20T12:12:36;12.10;;;7.82;;
60935;SDS011;46804;51.786;19.520;2023-12-20T12:16:37;10.43;;;7.32;;
60935;SDS011;46804;51.786;19.520;2023-12-20T12:20:38;14.55;;;9.27;;
60935;SDS011;46804;51.786;19.520;2023-12-20T12:24:39;13.05;;;7.30;;
60935;SDS011;46804;51.786;19.520;2023-12-20T12:28:41;9.93;;;6.57;;
60935;SDS011;46804;51.786;19.520;2023-12-20T12:32:43;10.45;;;6.80;;
60935;SDS011;46804;51.786;19.520;2023-12-20T12:36:44;13.63;;;8.32;;
60935;SDS011;46804;51.786;19.520;2023-12-20T12:40:46;17.85;;;6.72;;
60935;SDS011;46804;51.786;19.520;2023-12-20T12:44:47;10.07;;;6.97;;
60935;SDS011;46804;51.786;19.520;2023-12-20T12:48:48;8.63;;;5.43;;
60935;SDS011;46804;51.786;19.520;2023-12-20T12:52:50;9.57;;;6.32;;
60935;SDS011;46804;51.786;19.520;2023-12-20T12:56:51;15.73;;;8.13;;
60935;SDS011;46804;51.786;19.520;2023-12-20T13:00:53;12.18;;;8.30;;
60935;SDS011;46804;51.786;19.520;2023-12-20T13:04:54;12.43;;;8.18;;
60935;SDS011;46804;51.786;19.520;2023-12-20T13:08:54;12.25;;;7.53;;
60935;SDS011;46804;51.786;19.520;2023-12-20T13:12:55;11.02;;;7.07;;
60935;SDS011;46804;51.786;19.520;2023-12-20T13:16:56;12.77;;;7.53;;
60935;SDS011;46804;51.786;19.520;2023-12-20T13:20:57;12.05;;;7.25;;
60935;SDS011;46804;51.786;19.520;2023-12-20T13:24:58;12.73;;;7.85;;
60935;SDS011;46804;51.786;19.520;2023-12-20T13:28:58;15.13;;;9.50;;
60935;SDS011;46804;51.786;19.520;2023-12-20T13:32:59;16.83;;;7.53;;
60935;SDS011;46804;51.786;19.520;2023-12-20T13:37:00;12.85;;;6.82;;
60935;SDS011;46804;51.786;19.520;2023-12-20T13:41:00;15.52;;;7.15;;
60935;SDS011;46804;51.786;19.520;2023-12-20T13:45:01;11.40;;;6.82;;
60935;SDS011;46804;51.786;19.520;2023-12-20T13:49:02;10.95;;;6.15;;
60935;SDS011;46804;51.786;19.520;2023-12-20T13:53:03;9.80;;;5.88;;
60935;SDS011;46804;51.786;19.520;2023-12-20T13:57:04;12.88;;;5.80;;
60935;SDS011;46804;51.786;19.520;2023-12-20T14:01:05;12.43;;;5.95;;
60935;SDS011;46804;51.786;19.520;2023-12-20T14:05:07;12.05;;;4.88;;
60935;SDS011;46804;51.786;19.520;2023-12-20T14:09:09;11.57;;;6.55;;
60935;SDS011;46804;51.786;19.520;2023-12-20T14:13:12;16.03;;;9.10;;
60935;SDS011;46804;51.786;19.520;2023-12-20T14:17:13;21.02;;;8.70;;
60935;SDS011;46804;51.786;19.520;2023-12-20T14:21:13;12.30;;;6.65;;
60935;SDS011;46804;51.786;19.520;2023-12-20T14:25:14;18.20;;;9.77;;
60935;SDS011;46804;51.786;19.520;2023-12-20T14:29:15;13.02;;;7.60;;
60935;SDS011;46804;51.786;19.520;2023-12-20T14:33:16;16.30;;;7.78;;
60935;SDS011;46804;51.786;19.520;2023-12-20T14:37:16;13.90;;;5.95;;
60935;SDS011;46804;51.786;19.520;2023-12-20T14:41:18;10.95;;;5.07;;
60935;SDS011;46804;51.786;19.520;2023-12-20T14:45:19;10.23;;;4.43;;
60935;SDS011;46804;51.786;19.520;2023-12-20T14:49:20;53.22;;;12.55;;
60935;SDS011;46804;51.786;19.520;2023-12-20T14:53:21;30.25;;;11.00;;
60935;SDS011;46804;51.786;19.520;2023-12-20T14:57:22;31.40;;;11.55;;
60935;SDS011;46804;51.786;19.520;2023-12-20T15:01:23;22.48;;;7.00;;
60935;SDS011;46804;51.786;19.520;2023-12-20T15:05:24;14.52;;;6.57;;
60935;SDS011;46804;51.786;19.520;2023-12-20T15:09:25;13.75;;;5.57;;
60935;SDS011;46804;51.786;19.520;2023-12-20T15:13:25;20.80;;;6.45;;
60935;SDS011;46804;51.786;19.520;2023-12-20T15:17:26;18.60;;;7.05;;
60935;SDS011;46804;51.786;19.520;2023-12-20T15:21:27;9.35;;;4.93;;
60935;SDS011;46804;51.786;19.520;2023-12-20T15:25:33;11.50;;;4.80;;
60935;SDS011;46804;51.786;19.520;2023-12-20T15:29:34;10.75;;;4.82;;
60935;SDS011;46804;51.786;19.520;2023-12-20T15:33:34;15.55;;;6.68;;
60935;SDS011;46804;51.786;19.520;2023-12-20T15:37:35;24.63;;;9.13;;
60935;SDS011;46804;51.786;19.520;2023-12-20T15:41:35;10.98;;;5.05;;
60935;SDS011;46804;51.786;19.520;2023-12-20T15:45:36;12.93;;;6.50;;
60935;SDS011;46804;51.786;19.520;2023-12-20T15:49:36;14.50;;;6.03;;
60935;SDS011;46804;51.786;19.520;2023-12-20T15:53:38;11.00;;;4.20;;
60935;SDS011;46804;51.786;19.520;2023-12-20T15:57:39;18.80;;;7.10;;
60935;SDS011;46804;51.786;19.520;2023-12-20T16:01:39;26.25;;;8.95;;
60935;SDS011;46804;51.786;19.520;2023-12-20T16:05:40;16.95;;;6.07;;
60935;SDS011;46804;51.786;19.520;2023-12-20T16:09:41;10.65;;;4.45;;
60935;SDS011;46804;51.786;19.520;2023-12-20T16:13:42;13.73;;;5.55;;
60935;SDS011;46804;51.786;19.520;2023-12-20T16:17:43;9.35;;;3.80;;
60935;SDS011;46804;51.786;19.520;2023-12-20T16:21:44;6.68;;;3.85;;
60935;SDS011;46804;51.786;19.520;2023-12-20T16:25:44;11.73;;;5.40;;
60935;SDS011;46804;51.786;19.520;2023-12-20T16:29:45;17.48;;;5.25;;
60935;SDS011;46804;51.786;19.520;2023-12-20T16:33:46;8.60;;;4.97;;
60935;SDS011;46804;51.786;19.520;2023-12-20T16:37:47;10.70;;;4.43;;
60935;SDS011;46804;51.786;19.520;2023-12-20T16:41:47;11.50;;;5.13;;
60935;SDS011;46804;51.786;19.520;2023-12-20T16:45:48;13.45;;;5.15;;
60935;SDS011;46804;51.786;19.520;2023-12-20T16:49:49;21.00;;;8.18;;
60935;SDS011;46804;51.786;19.520;2023-12-20T16:53:49;37.88;;;11.35;;
60935;SDS011;46804;51.786;19.520;2023-12-20T16:57:50;24.63;;;9.60;;
60935;SDS011;46804;51.786;19.520;2023-12-20T17:01:51;20.13;;;8.75;;
60935;SDS011;46804;51.786;19.520;2023-12-20T17:05:52;27.20;;;9.70;;
60935;SDS011;46804;51.786;19.520;2023-12-20T17:09:53;20.15;;;6.95;;
60935;SDS011;46804;51.786;19.520;2023-12-20T17:13:54;19.88;;;7.22;;
60935;SDS011;46804;51.786;19.520;2023-12-20T17:17:54;22.35;;;7.10;;
60935;SDS011;46804;51.786;19.520;2023-12-20T17:21:55;18.95;;;6.78;;
60935;SDS011;46804;51.786;19.520;2023-12-20T17:25:56;44.58;;;13.52;;
60935;SDS011;46804;51.786;19.520;2023-12-20T17:29:56;20.20;;;7.43;;
60935;SDS011;46804;51.786;19.520;2023-12-20T17:33:57;21.67;;;9.27;;
60935;SDS011;46804;51.786;19.520;2023-12-20T17:37:57;24.58;;;8.23;;
60935;SDS011;46804;51.786;19.520;2023-12-20T17:41:58;14.90;;;6.57;;
60935;SDS011;46804;51.786;19.520;2023-12-20T17:45:59;12.05;;;5.28;;
60935;SDS011;46804;51.786;19.520;2023-12-20T17:50:00;14.90;;;6.43;;
60935;SDS011;46804;51.786;19.520;2023-12-20T17:54:01;12.25;;;6.35;;
60935;SDS011;46804;51.786;19.520;2023-12-20T17:58:03;17.23;;;8.77;;
60935;SDS011;46804;51.786;19.520;2023-12-20T18:02:04;12.77;;;6.50;;
60935;SDS011;46804;51.786;19.520;2023-12-20T18:06:06;12.93;;;5.32;;
60935;SDS011;46804;51.786;19.520;2023-12-20T18:10:06;6.10;;;3.90;;
60935;SDS011;46804;51.786;19.520;2023-12-20T18:14:08;13.07;;;5.68;;
60935;SDS011;46804;51.786;19.520;2023-12-20T18:18:10;8.07;;;4.73;;
60935;SDS011;46804;51.786;19.520;2023-12-20T18:22:11;5.43;;;3.67;;
60935;SDS011;46804;51.786;19.520;2023-12-20T18:26:12;12.10;;;4.60;;
60935;SDS011;46804;51.786;19.520;2023-12-20T18:30:13;8.10;;;3.75;;
60935;SDS011;46804;51.786;19.520;2023-12-20T18:34:14;8.88;;;4.03;;
60935;SDS011;46804;51.786;19.520;2023-12-20T18:38:15;7.10;;;3.35;;
60935;SDS011;46804;51.786;19.520;2023-12-20T18:42:16;8.93;;;4.22;;
60935;SDS011;46804;51.786;19.520;2023-12-20T18:46:17;6.03;;;2.72;;
60935;SDS011;46804;51.786;19.520;2023-12-20T18:50:18;7.60;;;3.35;;
60935;SDS011;46804;51.786;19.520;2023-12-20T18:54:18;6.28;;;2.97;;
60935;SDS011;46804;51.786;19.520;2023-12-20T18:58:21;4.97;;;2.65;;
60935;SDS011;46804;51.786;19.520;2023-12-20T19:02:24;5.55;;;2.13;;
60935;SDS011;46804;51.786;19.520;2023-12-20T19:06:25;2.92;;;1.85;;
60935;SDS011;46804;51.786;19.520;2023-12-20T19:10:25;3.03;;;2.10;;
60935;SDS011;46804;51.786;19.520;2023-12-20T19:14:27;4.25;;;1.50;;
60935;SDS011;46804;51.786;19.520;2023-12-20T19:18:28;3.03;;;1.85;;
60935;SDS011;46804;51.786;19.520;2023-12-20T19:22:30;5.15;;;2.10;;
60935;SDS011;46804;51.786;19.520;2023-12-20T19:26:32;2.35;;;1.63;;
60935;SDS011;46804;51.786;19.520;2023-12-20T19:30:33;3.45;;;1.80;;
60935;SDS011;46804;51.786;19.520;2023-12-20T19:34:33;3.17;;;1.75;;
60935;SDS011;46804;51.786;19.520;2023-12-20T19:38:34;3.65;;;1.80;;
60935;SDS011;46804;51.786;19.520;2023-12-20T19:42:36;4.00;;;1.40;;
60935;SDS011;46804;51.786;19.520;2023-12-20T19:46:38;2.60;;;1.52;;
60935;SDS011;46804;51.786;19.520;2023-12-20T19:50:38;3.30;;;1.77;;
60935;SDS011;46804;51.786;19.520;2023-12-20T19:54:39;5.47;;;2.00;;
60935;SDS011;46804;51.786;19.520;2023-12-20T19:58:40;4.88;;;2.50;;
60935;SDS011;46804;51.786;19.520;2023-12-20T20:02:41;2.38;;;1.63;;
60935;SDS011;46804;51.786;19.520;2023-12-20T20:06:41;4.70;;;2.10;;
60935;SDS011;46804;51.786;19.520;2023-12-20T20:10:42;7.28;;;2.85;;
60935;SDS011;46804;51.786;19.520;2023-12-20T20:14:43;7.32;;;2.30;;
60935;SDS011;46804;51.786;19.520;2023-12-20T20:18:43;6.60;;;2.95;;
60935;SDS011;46804;51.786;19.520;2023-12-20T20:22:44;9.50;;;3.05;;
60935;SDS011;46804;51.786;19.520;2023-12-20T20:26:46;8.73;;;3.20;;
60935;SDS011;46804;51.786;19.520;2023-12-20T20:30:54;8.23;;;3.15;;
60935;SDS011;46804;51.786;19.520;2023-12-20T20:35:07;5.60;;;2.80;;
60935;SDS011;46804;51.786;19.520;2023-12-20T20:39:08;7.78;;;3.35;;
60935;SDS011;46804;51.786;19.520;2023-12-20T20:43:13;6.95;;;2.97;;
60935;SDS011;46804;51.786;19.520;2023-12-20T20:52:06;4.82;;;2.90;;
60935;SDS011;46804;51.786;19.520;2023-12-20T21:00:44;6.65;;;3.03;;
60935;SDS011;46804;51.786;19.520;2023-12-20T21:04:54;14.10;;;3.28;;
60935;SDS011;46804;51.786;19.520;2023-12-20T21:08:59;11.10;;;3.45;;
60935;SDS011;46804;51.786;19.520;2023-12-20T21:13:06;4.55;;;2.92;;
60935;SDS011;46804;51.786;19.520;2023-12-20T21:17:27;10.68;;;3.53;;
60935;SDS011;46804;51.786;19.520;2023-12-20T21:21:33;9.30;;;3.20;;
60935;SDS011;46804;51.786;19.520;2023-12-20T21:25:46;6.60;;;3.05;;
60935;SDS011;46804;51.786;19.520;2023-12-20T21:29:58;5.20;;;2.92;;
60935;SDS011;46804;51.786;19.520;2023-12-20T21:39:26;7.95;;;3.63;;
60935;SDS011;46804;51.786;19.520;2023-12-20T21:43:32;7.53;;;3.50;;
60935;SDS011;46804;51.786;19.520;2023-12-20T21:47:40;8.77;;;3.63;;
60935;SDS011;46804;51.786;19.520;2023-12-20T21:51:43;7.05;;;3.60;;
60935;SDS011;46804;51.786;19.520;2023-12-20T21:55:43;8.48;;;3.65;;
60935;SDS011;46804;51.786;19.520;2023-12-20T21:59:44;8.27;;;3.55;;
60935;SDS011;46804;51.786;19.520;2023-12-20T22:03:49;10.38;;;3.28;;
60935;SDS011;46804;51.786;19.520;2023-12-20T22:11:53;5.13;;;2.92;;
60935;SDS011;46804;51.786;19.520;2023-12-20T22:15:53;7.63;;;2.75;;
60935;SDS011;46804;51.786;19.520;2023-12-20T22:19:55;10.57;;;3.88;;
60935;SDS011;46804;51.786;19.520;2023-12-20T22:23:55;9.75;;;3.08;;
60935;SDS011;46804;51.786;19.520;2023-12-20T22:27:56;10.27;;;3.33;;
60935;SDS011;46804;51.786;19.520;2023-12-20T22:31:57;13.77;;;2.90;;
60935;SDS011;46804;51.786;19.520;2023-12-20T22:35:57;10.13;;;3.65;;
60935;SDS011;46804;51.786;19.520;2023-12-20T22:39:58;7.55;;;2.95;;
60935;SDS011;46804;51.786;19.520;2023-12-20T22:43:59;8.73;;;3.20;;
60935;SDS011;46804;51.786;19.520;2023-12-20T22:48:00;12.45;;;4.32;;
60935;SDS011;46804;51.786;19.520;2023-12-20T22:52:02;34.25;;;9.23;;
60935;SDS011;46804;51.786;19.520;2023-12-20T22:56:03;4.78;;;2.70;;
60935;SDS011;46804;51.786;19.520;2023-12-20T23:00:04;14.73;;;5.18;;
60935;SDS011;46804;51.786;19.520;2023-12-20T23:04:05;9.43;;;3.53;;
60935;SDS011;46804;51.786;19.520;2023-12-20T23:08:06;8.45;;;4.10;;
60935;SDS011;46804;51.786;19.520;2023-12-20T23:12:08;8.23;;;3.03;;
60935;SDS011;46804;51.786;19.520;2023-12-20T23:16:08;12.35;;;3.08;;
60935;SDS011;46804;51.786;19.520;2023-12-20T23:20:09;8.68;;;2.83;;
60935;SDS011;46804;51.786;19.520;2023-12-20T23:24:10;9.07;;;3.42;;
60935;SDS011;46804;51.786;19.520;2023-12-20T23:28:11;11.70;;;3.80;;
60935;SDS011;46804;51.786;19.520;2023-12-20T23:32:12;9.00;;;3.78;;
60935;SDS011;46804;51.786;19.520;2023-12-20T23:36:12;9.13;;;3.55;;
60935;SDS011;46804;51.786;19.520;2023-12-20T23:40:13;7.63;;;3.13;;
60935;SDS011;46804;51.786;19.520;2023-12-20T23:44:14;9.43;;;3.45;;
60935;SDS011;46804;51.786;19.520;2023-12-20T23:48:15;11.07;;;3.83;;
60935;SDS011;46804;51.786;19.520;2023-12-20T23:52:15;8.85;;;3.28;;
60935;SDS011;46804;51.786;19.520;2023-12-20T23:56:16;9.20;;;3.40;;
